Time;durP1;ratioP1;P1;durP2;ratioP2;P2;SDS_P1;SDS_P2;PMS_P1;PMS_P2;Temp;Humidity;BMP_temperature;BMP_pressure;BME280_temperature;BME280_humidity;BME280_pressure;Samples;Min_cycle;Max_cycle;Signal;HPM_P1;HPM_P2
2023/08/24 00:01:49;;;;;;;4.50;3.40;;;;;;;;;;4979249;28;20476;-77
2023/08/24 00:04:14;;;;;;;4.53;3.10;;;;;;;;;;4979633;28;20073;-77
2023/08/24 00:06:39;;;;;;;4.15;3.20;;;;;;;;;;4998674;28;20037;-77
2023/08/24 00:09:05;;;;;;;4.50;3.85;;;;;;;;;;4998697;28;20022;-77
2023/08/24 00:11:31;;;;;;;4.22;3.25;;;;;;;;;;4983090;28;20026;-77
2023/08/24 00:13:56;;;;;;;4.22;2.83;;;;;;;;;;4983437;28;20033;-78
2023/08/24 00:16:21;;;;;;;3.97;3.05;;;;;;;;;;4983623;28;20026;-77
2023/08/24 00:18:47;;;;;;;5.45;3.67;;;;;;;;;;4983569;28;20030;-77
2023/08/24 00:21:22;;;;;;;3.30;3.00;;;;;;;;;;4983594;28;20026;-77
2023/08/24 00:23:48;;;;;;;4.05;3.25;;;;;;;;;;5001770;28;20026;-79
2023/08/24 00:26:13;;;;;;;4.60;2.80;;;;;;;;;;4983013;28;20585;-78
2023/08/24 00:28:41;;;;;;;4.43;3.03;;;;;;;;;;4984639;28;20027;-77
2023/08/24 00:31:07;;;;;;;4.25;3.38;;;;;;;;;;5001181;28;20571;-77
2023/08/24 00:33:32;;;;;;;4.32;3.50;;;;;;;;;;4984247;28;20060;-79
2023/08/24 00:36:01;;;;;;;4.90;3.63;;;;;;;;;;4983586;28;20026;-78
2023/08/24 00:38:27;;;;;;;6.80;3.47;;;;;;;;;;4984614;28;20030;-77
2023/08/24 00:40:53;;;;;;;5.13;3.58;;;;;;;;;;5002063;28;20080;-77
2023/08/24 00:43:23;;;;;;;4.57;4.13;;;;;;;;;;4984935;28;20490;-78
2023/08/24 00:45:50;;;;;;;4.07;3.00;;;;;;;;;;4984118;28;20026;-77
2023/08/24 00:48:15;;;;;;;5.00;3.63;;;;;;;;;;4984604;28;20109;-77
2023/08/24 00:50:40;;;;;;;4.55;3.67;;;;;;;;;;4984503;28;20082;-77
2023/08/24 00:53:06;;;;;;;5.13;3.85;;;;;;;;;;4984281;28;20034;-77
2023/08/24 00:55:31;;;;;;;4.82;4.00;;;;;;;;;;4986423;28;20031;-78
2023/08/24 00:57:57;;;;;;;8.20;3.00;;;;;;;;;;4999757;28;20081;-77
2023/08/24 01:00:22;;;;;;;4.47;3.45;;;;;;;;;;4982857;28;20105;-78
2023/08/24 01:02:48;;;;;;;5.38;4.43;;;;;;;;;;4983223;28;20057;-77
2023/08/24 01:05:13;;;;;;;6.10;4.57;;;;;;;;;;4982557;28;20054;-77
2023/08/24 01:07:39;;;;;;;6.43;4.18;;;;;;;;;;4982524;28;20570;-77
2023/08/24 01:10:06;;;;;;;6.88;3.42;;;;;;;;;;5000233;28;20506;-78
2023/08/24 01:12:43;;;;;;;4.97;3.60;;;;;;;;;;4982904;28;20022;-77
2023/08/24 01:15:20;;;;;;;5.35;3.50;;;;;;;;;;4988850;23;20027;-77
2023/08/24 01:17:47;;;;;;;3.65;3.20;;;;;;;;;;4981242;28;20118;-77
2023/08/24 01:20:14;;;;;;;4.30;3.40;;;;;;;;;;4997775;28;20022;-78
2023/08/24 01:23:14;;;;;;;4.03;2.83;;;;;;;;;;4997471;28;20562;-77
2023/08/24 01:25:53;;;;;;;4.53;2.80;;;;;;;;;;4999663;28;20102;-77
2023/08/24 01:28:21;;;;;;;4.05;2.88;;;;;;;;;;4998669;28;20027;-77
2023/08/24 01:30:47;;;;;;;4.38;2.88;;;;;;;;;;4982979;28;20041;-76
2023/08/24 01:33:13;;;;;;;3.35;2.63;;;;;;;;;;4981423;28;20022;-77
2023/08/24 01:35:39;;;;;;;4.30;3.17;;;;;;;;;;4966098;28;20028;-76
2023/08/24 01:38:06;;;;;;;4.57;3.10;;;;;;;;;;4998328;28;20026;-77
2023/08/24 01:40:52;;;;;;;3.40;2.90;;;;;;;;;;5000565;28;20029;-77
2023/08/24 01:43:20;;;;;;;4.50;3.47;;;;;;;;;;5012207;28;20088;-77
2023/08/24 01:45:46;;;;;;;5.32;2.78;;;;;;;;;;5002249;28;20368;-77
2023/08/24 01:48:12;;;;;;;5.70;4.03;;;;;;;;;;5001260;28;20029;-77
2023/08/24 01:50:38;;;;;;;6.35;4.10;;;;;;;;;;5001914;28;20110;-77
2023/08/24 01:53:03;;;;;;;4.55;3.20;;;;;;;;;;5002137;28;20491;-77
2023/08/24 01:55:29;;;;;;;5.45;3.13;;;;;;;;;;5001741;28;20029;-77
2023/08/24 01:57:55;;;;;;;5.00;3.55;;;;;;;;;;5001438;28;20030;-77
2023/08/24 02:00:20;;;;;;;6.40;4.60;;;;;;;;;;5001406;28;20049;-76
2023/08/24 02:02:46;;;;;;;4.90;3.45;;;;;;;;;;5001070;28;20029;-77
2023/08/24 02:05:12;;;;;;;5.35;3.95;;;;;;;;;;5001091;28;20038;-77
2023/08/24 02:07:38;;;;;;;6.95;4.68;;;;;;;;;;5001545;28;20505;-77
2023/08/24 02:10:04;;;;;;;5.32;3.65;;;;;;;;;;5001302;28;20022;-77
2023/08/24 02:12:29;;;;;;;7.50;4.25;;;;;;;;;;5018662;28;20025;-77
2023/08/24 02:14:54;;;;;;;7.25;4.60;;;;;;;;;;5000521;28;20022;-77
2023/08/24 02:17:20;;;;;;;7.30;4.80;;;;;;;;;;5017441;28;20033;-77
2023/08/24 02:19:45;;;;;;;6.90;4.90;;;;;;;;;;5017801;28;20026;-77
2023/08/24 02:22:10;;;;;;;6.07;4.38;;;;;;;;;;4999839;28;20041;-77
2023/08/24 02:24:36;;;;;;;5.28;3.90;;;;;;;;;;5000657;28;20087;-77
2023/08/24 02:27:01;;;;;;;4.07;2.95;;;;;;;;;;4998401;28;20465;-77
2023/08/24 02:29:27;;;;;;;4.40;3.08;;;;;;;;;;5015640;28;20022;-77
2023/08/24 02:31:52;;;;;;;7.15;3.63;;;;;;;;;;4998642;28;20060;-77
2023/08/24 02:34:18;;;;;;;5.32;3.72;;;;;;;;;;4998264;28;20057;-77
2023/08/24 02:36:43;;;;;;;5.50;3.67;;;;;;;;;;4998804;28;20104;-77
2023/08/24 02:39:08;;;;;;;4.35;3.25;;;;;;;;;;5016478;28;20026;-77
2023/08/24 02:41:34;;;;;;;6.13;3.58;;;;;;;;;;5000267;28;20022;-77
2023/08/24 02:44:00;;;;;;;3.40;2.80;;;;;;;;;;4999211;28;20026;-76
2023/08/24 02:46:25;;;;;;;3.15;2.72;;;;;;;;;;5015649;28;20026;-77
2023/08/24 02:48:50;;;;;;;3.90;2.85;;;;;;;;;;4999527;28;20025;-77
2023/08/24 02:51:16;;;;;;;4.07;2.53;;;;;;;;;;4999718;28;20029;-77
2023/08/24 02:53:41;;;;;;;3.55;2.20;;;;;;;;;;4999789;28;20392;-77
2023/08/24 02:56:06;;;;;;;4.05;3.05;;;;;;;;;;5000320;28;20026;-77
2023/08/24 02:58:32;;;;;;;3.38;2.97;;;;;;;;;;5018024;28;20077;-77
2023/08/24 03:00:57;;;;;;;3.60;2.58;;;;;;;;;;5017068;28;20439;-77
2023/08/24 03:03:23;;;;;;;4.35;3.10;;;;;;;;;;4999423;28;20022;-77
2023/08/24 03:06:00;;;;;;;4.13;3.00;;;;;;;;;;4998925;28;20436;-77
2023/08/24 03:08:25;;;;;;;4.75;3.22;;;;;;;;;;4999312;28;20025;-77
2023/08/24 03:10:50;;;;;;;4.65;3.70;;;;;;;;;;4999752;28;20549;-77
2023/08/24 03:13:16;;;;;;;3.67;2.90;;;;;;;;;;5016134;28;20030;-77
2023/08/24 03:15:42;;;;;;;3.72;3.33;;;;;;;;;;4998799;28;20034;-77
2023/08/24 03:18:07;;;;;;;6.00;3.30;;;;;;;;;;5016495;28;20369;-77
2023/08/24 03:20:32;;;;;;;5.75;3.70;;;;;;;;;;5015706;28;20110;-77
2023/08/24 03:22:58;;;;;;;7.53;2.92;;;;;;;;;;4998612;28;20487;-77
2023/08/24 03:25:23;;;;;;;5.43;3.80;;;;;;;;;;4997862;28;20506;-77
2023/08/24 03:27:48;;;;;;;5.40;3.72;;;;;;;;;;4998421;28;20030;-77
2023/08/24 03:30:14;;;;;;;4.90;3.20;;;;;;;;;;4997618;28;20464;-77
2023/08/24 03:32:42;;;;;;;4.65;3.40;;;;;;;;;;4998333;28;20057;-76
2023/08/24 03:35:08;;;;;;;3.72;2.65;;;;;;;;;;4997945;28;20404;-77
2023/08/24 03:37:33;;;;;;;4.40;2.72;;;;;;;;;;4998327;28;20026;-76
2023/08/24 03:39:58;;;;;;;6.68;2.92;;;;;;;;;;4997479;28;20026;-77
2023/08/24 03:42:24;;;;;;;4.68;3.13;;;;;;;;;;5001953;28;20037;-76
2023/08/24 03:44:49;;;;;;;6.28;3.75;;;;;;;;;;5018708;28;20033;-76
2023/08/24 03:47:14;;;;;;;6.38;3.83;;;;;;;;;;5001455;28;20516;-76
2023/08/24 03:49:43;;;;;;;7.22;3.33;;;;;;;;;;5018701;28;20053;-76
2023/08/24 03:52:08;;;;;;;4.13;3.60;;;;;;;;;;5001340;28;20054;-77
2023/08/24 03:54:33;;;;;;;4.78;3.63;;;;;;;;;;5019171;28;20021;-77
2023/08/24 03:57:01;;;;;;;7.05;4.10;;;;;;;;;;5018520;28;20018;-77
2023/08/24 03:59:26;;;;;;;6.22;3.13;;;;;;;;;;5000505;28;20395;-76
2023/08/24 04:01:51;;;;;;;6.45;4.63;;;;;;;;;;5018358;28;20030;-76
2023/08/24 04:04:17;;;;;;;6.30;3.80;;;;;;;;;;5001282;28;20026;-76
2023/08/24 04:06:42;;;;;;;4.97;3.45;;;;;;;;;;5018672;28;20041;-77
2023/08/24 04:09:07;;;;;;;6.40;3.60;;;;;;;;;;5001394;28;20021;-77
2023/08/24 04:11:34;;;;;;;5.20;3.88;;;;;;;;;;5017605;28;20026;-77
2023/08/24 04:13:59;;;;;;;4.78;3.60;;;;;;;;;;5016972;28;20040;-76
2023/08/24 04:16:25;;;;;;;3.95;2.92;;;;;;;;;;5000346;28;20507;-77
2023/08/24 04:18:50;;;;;;;4.65;2.92;;;;;;;;;;5000508;28;20503;-77
2023/08/24 04:21:16;;;;;;;3.63;2.65;;;;;;;;;;5000425;28;20037;-76
2023/08/24 04:23:45;;;;;;;4.00;3.10;;;;;;;;;;5000851;28;20021;-77
2023/08/24 04:26:13;;;;;;;5.32;3.30;;;;;;;;;;5016876;28;20082;-77
2023/08/24 04:28:41;;;;;;;5.47;3.50;;;;;;;;;;4999970;28;20022;-77
2023/08/24 04:31:06;;;;;;;7.10;4.00;;;;;;;;;;5000558;28;20032;-76
2023/08/24 04:33:32;;;;;;;5.88;3.80;;;;;;;;;;4999868;28;20022;-77
2023/08/24 04:35:58;;;;;;;7.88;3.58;;;;;;;;;;5017312;28;20113;-76
2023/08/24 04:38:23;;;;;;;4.82;3.38;;;;;;;;;;5016730;28;20080;-76
2023/08/24 04:40:54;;;;;;;5.00;3.55;;;;;;;;;;5016189;28;20033;-76
2023/08/24 04:43:21;;;;;;;6.30;3.38;;;;;;;;;;4999527;28;20105;-77
2023/08/24 04:45:47;;;;;;;4.88;3.22;;;;;;;;;;4999383;28;20025;-77
2023/08/24 04:48:13;;;;;;;5.10;3.50;;;;;;;;;;4998582;28;20488;-77
2023/08/24 04:50:38;;;;;;;11.27;4.05;;;;;;;;;;4990034;28;20022;-77
2023/08/24 04:53:04;;;;;;;5.95;4.00;;;;;;;;;;4995501;28;20034;-76
2023/08/24 04:55:29;;;;;;;4.13;3.17;;;;;;;;;;4997165;28;20022;-77
2023/08/24 04:57:57;;;;;;;5.13;3.50;;;;;;;;;;4996631;28;20132;-76
2023/08/24 05:00:22;;;;;;;4.30;2.80;;;;;;;;;;4996569;28;20033;-77
2023/08/24 05:02:48;;;;;;;4.90;3.30;;;;;;;;;;4996344;28;20042;-76
2023/08/24 05:05:13;;;;;;;4.07;3.05;;;;;;;;;;4996967;28;20022;-77
2023/08/24 05:07:39;;;;;;;4.28;2.75;;;;;;;;;;4997090;28;20466;-76
2023/08/24 05:10:05;;;;;;;3.30;2.65;;;;;;;;;;4979248;28;20049;-76
2023/08/24 05:12:33;;;;;;;3.78;2.90;;;;;;;;;;4996916;28;20037;-77
2023/08/24 05:14:58;;;;;;;3.38;2.60;;;;;;;;;;4979530;28;20500;-76
2023/08/24 05:17:26;;;;;;;3.17;2.50;;;;;;;;;;4996593;28;20076;-77
2023/08/24 05:19:53;;;;;;;3.78;2.30;;;;;;;;;;4995725;28;20381;-76
2023/08/24 05:22:18;;;;;;;4.22;3.00;;;;;;;;;;4995378;28;20035;-76
2023/08/24 05:24:43;;;;;;;3.45;2.47;;;;;;;;;;4978673;28;20077;-76
2023/08/24 05:27:09;;;;;;;4.93;2.72;;;;;;;;;;4996224;28;20105;-76
2023/08/24 05:29:34;;;;;;;6.38;3.28;;;;;;;;;;4996690;28;20030;-76
2023/08/24 05:31:59;;;;;;;4.05;3.25;;;;;;;;;;4996189;28;20022;-77
2023/08/24 05:34:25;;;;;;;4.65;3.90;;;;;;;;;;4995631;28;20080;-76
2023/08/24 05:36:50;;;;;;;4.38;3.70;;;;;;;;;;4996211;28;20033;-76
2023/08/24 05:39:16;;;;;;;6.53;4.40;;;;;;;;;;4994741;28;20061;-76
2023/08/24 05:41:41;;;;;;;6.47;4.53;;;;;;;;;;4995935;28;20058;-76
2023/08/24 05:44:06;;;;;;;7.88;5.32;;;;;;;;;;4994734;28;20496;-76
2023/08/24 05:46:32;;;;;;;5.85;4.05;;;;;;;;;;4978757;28;20113;-76
2023/08/24 05:48:58;;;;;;;7.07;4.40;;;;;;;;;;4978199;28;20022;-77
2023/08/24 05:51:23;;;;;;;6.25;4.15;;;;;;;;;;4978519;28;20034;-76
2023/08/24 05:53:49;;;;;;;8.88;6.18;;;;;;;;;;4995296;28;20018;-76
2023/08/24 05:56:14;;;;;;;8.90;5.85;;;;;;;;;;4978285;28;20062;-76
2023/08/24 05:58:39;;;;;;;9.70;5.63;;;;;;;;;;4994372;28;20025;-76
2023/08/24 06:01:07;;;;;;;6.40;5.20;;;;;;;;;;4994895;28;20026;-76
2023/08/24 06:03:33;;;;;;;9.27;5.35;;;;;;;;;;4993996;28;20025;-76
2023/08/24 06:06:03;;;;;;;10.02;5.97;;;;;;;;;;4994256;28;20032;-76
2023/08/24 06:08:28;;;;;;;11.95;7.55;;;;;;;;;;4977585;28;20025;-76
2023/08/24 06:10:54;;;;;;;9.45;6.13;;;;;;;;;;4994180;28;20030;-76
2023/08/24 06:13:19;;;;;;;11.52;6.43;;;;;;;;;;4995312;28;20034;-76
2023/08/24 06:15:44;;;;;;;7.60;5.78;;;;;;;;;;4995701;28;20034;-76
2023/08/24 06:18:10;;;;;;;9.13;6.00;;;;;;;;;;4977393;28;20480;-76
2023/08/24 06:20:35;;;;;;;10.88;6.53;;;;;;;;;;4995085;28;20026;-76
2023/08/24 06:23:00;;;;;;;9.05;5.90;;;;;;;;;;4995625;28;20378;-76
2023/08/24 06:25:26;;;;;;;9.82;5.60;;;;;;;;;;4993681;28;20085;-76
2023/08/24 06:27:51;;;;;;;16.40;7.70;;;;;;;;;;4995177;28;20022;-76
2023/08/24 06:30:16;;;;;;;14.10;6.47;;;;;;;;;;4993900;28;20069;-76
2023/08/24 06:32:41;;;;;;;12.30;5.57;;;;;;;;;;4994709;28;20026;-76
2023/08/24 06:35:07;;;;;;;8.25;5.38;;;;;;;;;;4994221;28;20026;-76
2023/08/24 06:37:32;;;;;;;6.20;4.65;;;;;;;;;;4995223;28;20034;-76
2023/08/24 06:39:57;;;;;;;8.32;4.90;;;;;;;;;;4993583;28;20026;-76
2023/08/24 06:42:23;;;;;;;5.43;4.20;;;;;;;;;;4994375;28;20136;-76
2023/08/24 06:44:51;;;;;;;11.15;5.63;;;;;;;;;;4994693;28;20076;-76
2023/08/24 06:47:16;;;;;;;12.07;5.57;;;;;;;;;;4977270;28;20038;-76
2023/08/24 06:49:42;;;;;;;11.63;5.70;;;;;;;;;;4993534;28;20018;-76
2023/08/24 06:52:08;;;;;;;7.57;4.38;;;;;;;;;;4977671;28;20033;-76
2023/08/24 06:54:33;;;;;;;8.02;5.80;;;;;;;;;;4993697;28;20026;-76
2023/08/24 06:56:58;;;;;;;5.75;4.20;;;;;;;;;;4994318;28;20466;-76
2023/08/24 06:59:24;;;;;;;9.23;5.90;;;;;;;;;;4994747;28;20093;-76
2023/08/24 07:01:49;;;;;;;10.10;5.97;;;;;;;;;;4994744;28;20022;-76
2023/08/24 07:04:15;;;;;;;6.55;5.22;;;;;;;;;;4994585;28;20063;-76
2023/08/24 07:06:42;;;;;;;8.80;5.00;;;;;;;;;;4994574;28;20097;-76
2023/08/24 07:09:07;;;;;;;6.82;4.80;;;;;;;;;;4993425;28;20025;-76
2023/08/24 07:11:33;;;;;;;11.77;6.68;;;;;;;;;;4994934;28;20026;-76
2023/08/24 07:13:58;;;;;;;6.18;5.10;;;;;;;;;;4994835;28;20023;-76
2023/08/24 07:16:23;;;;;;;10.18;5.63;;;;;;;;;;4995556;23;20042;-76
2023/08/24 07:18:49;;;;;;;8.32;5.07;;;;;;;;;;5012372;28;20451;-76
2023/08/24 07:21:14;;;;;;;7.25;4.15;;;;;;;;;;5014329;28;20377;-76
2023/08/24 07:23:40;;;;;;;10.38;4.85;;;;;;;;;;5014309;28;20030;-77
2023/08/24 07:26:06;;;;;;;7.93;4.30;;;;;;;;;;5009982;28;20053;-76
2023/08/24 07:28:31;;;;;;;9.70;3.67;;;;;;;;;;4994815;28;20448;-76
2023/08/24 07:30:56;;;;;;;4.97;3.13;;;;;;;;;;5009852;28;20117;-76
2023/08/24 07:33:22;;;;;;;5.88;3.20;;;;;;;;;;4993049;28;20023;-76
2023/08/24 07:35:47;;;;;;;4.68;3.78;;;;;;;;;;4994684;28;20023;-76
2023/08/24 07:38:12;;;;;;;5.13;2.85;;;;;;;;;;4993341;28;20169;-76
2023/08/24 07:40:38;;;;;;;6.47;3.58;;;;;;;;;;4994522;28;20026;-76
2023/08/24 07:43:03;;;;;;;4.85;3.15;;;;;;;;;;4993503;28;20042;-77
2023/08/24 07:45:29;;;;;;;5.45;2.53;;;;;;;;;;4995664;28;20027;-76
2023/08/24 07:47:54;;;;;;;2.97;2.33;;;;;;;;;;4994450;28;20476;-76
2023/08/24 07:50:20;;;;;;;4.32;2.45;;;;;;;;;;4993200;28;20026;-76
2023/08/24 07:52:45;;;;;;;3.60;2.00;;;;;;;;;;4993226;28;20030;-76
2023/08/24 07:55:11;;;;;;;5.18;2.10;;;;;;;;;;4992634;28;20030;-76
2023/08/24 07:57:37;;;;;;;4.30;2.35;;;;;;;;;;4993509;28;20101;-76
2023/08/24 08:00:06;;;;;;;5.38;2.38;;;;;;;;;;4994198;28;20026;-77
2023/08/24 08:02:32;;;;;;;5.78;2.17;;;;;;;;;;4978001;28;20026;-77
2023/08/24 08:04:58;;;;;;;5.60;2.05;;;;;;;;;;4993356;28;20034;-75
2023/08/24 08:07:24;;;;;;;6.78;2.80;;;;;;;;;;4993406;28;20061;-75
2023/08/24 08:09:49;;;;;;;10.30;2.67;;;;;;;;;;4994353;28;20029;-75
2023/08/24 08:12:15;;;;;;;3.30;1.63;;;;;;;;;;4976737;28;20396;-75
2023/08/24 08:14:40;;;;;;;4.05;2.28;;;;;;;;;;4992909;28;20023;-75
2023/08/24 08:17:06;;;;;;;6.30;2.10;;;;;;;;;;4993558;28;20033;-75
2023/08/24 08:19:31;;;;;;;5.50;2.63;;;;;;;;;;4994051;28;20096;-75
2023/08/24 08:21:57;;;;;;;6.15;2.38;;;;;;;;;;4994280;28;20033;-75
2023/08/24 08:24:22;;;;;;;4.85;2.40;;;;;;;;;;4993386;28;20030;-76
2023/08/24 08:26:48;;;;;;;7.53;2.83;;;;;;;;;;5009144;28;20033;-75
2023/08/24 08:29:13;;;;;;;2.88;2.05;;;;;;;;;;4997445;28;20394;-75
2023/08/24 08:31:38;;;;;;;6.22;2.30;;;;;;;;;;4997803;28;20142;-75
2023/08/24 08:34:04;;;;;;;5.95;2.15;;;;;;;;;;4995558;28;20034;-75
2023/08/24 08:36:32;;;;;;;4.85;2.10;;;;;;;;;;4997266;28;20030;-75
2023/08/24 08:38:57;;;;;;;4.55;2.10;;;;;;;;;;4997047;28;20054;-75
2023/08/24 08:41:27;;;;;;;2.58;2.03;;;;;;;;;;4996362;28;20050;-75
2023/08/24 08:43:52;;;;;;;5.78;1.67;;;;;;;;;;4995476;28;20396;-76
2023/08/24 08:46:18;;;;;;;4.93;2.10;;;;;;;;;;4995866;28;20102;-75
2023/08/24 08:48:45;;;;;;;5.00;2.47;;;;;;;;;;4979443;28;20026;-76
2023/08/24 08:51:11;;;;;;;7.60;2.40;;;;;;;;;;4995745;28;20030;-75
2023/08/24 08:53:36;;;;;;;5.45;2.22;;;;;;;;;;4995233;28;20057;-75
2023/08/24 08:56:05;;;;;;;3.35;1.92;;;;;;;;;;4995574;28;20065;-75
2023/08/24 08:58:31;;;;;;;3.80;2.08;;;;;;;;;;4996978;28;20030;-74
2023/08/24 09:00:59;;;;;;;3.88;2.13;;;;;;;;;;5011979;28;20018;-75
2023/08/24 09:03:26;;;;;;;4.82;2.10;;;;;;;;;;4995922;28;20069;-75
2023/08/24 09:05:51;;;;;;;4.88;2.25;;;;;;;;;;4995249;28;20029;-75
2023/08/24 09:08:17;;;;;;;5.63;2.15;;;;;;;;;;4995535;28;20041;-75
2023/08/24 09:10:42;;;;;;;5.50;3.20;;;;;;;;;;4995876;28;20026;-75
2023/08/24 09:13:08;;;;;;;5.00;1.85;;;;;;;;;;4996433;28;20026;-75
2023/08/24 09:15:36;;;;;;;6.95;2.28;;;;;;;;;;4995510;28;20049;-75
2023/08/24 09:18:02;;;;;;;2.40;1.80;;;;;;;;;;4996624;28;20033;-75
2023/08/24 09:20:29;;;;;;;6.10;2.10;;;;;;;;;;4993352;28;20034;-76
2023/08/24 09:22:56;;;;;;;6.13;2.25;;;;;;;;;;4995222;28;20030;-75
2023/08/24 09:25:22;;;;;;;2.88;1.90;;;;;;;;;;4996214;28;20022;-75
2023/08/24 09:27:59;;;;;;;4.60;2.00;;;;;;;;;;4995468;28;20029;-75
2023/08/24 09:30:35;;;;;;;3.05;2.20;;;;;;;;;;4995038;28;20021;-75
2023/08/24 09:33:03;;;;;;;6.05;2.10;;;;;;;;;;4995494;28;20030;-75
2023/08/24 09:35:33;;;;;;;6.68;2.00;;;;;;;;;;4995121;28;20057;-75
2023/08/24 09:37:58;;;;;;;2.63;1.90;;;;;;;;;;4996124;28;20019;-75
2023/08/24 09:40:26;;;;;;;4.63;2.10;;;;;;;;;;4994670;28;20034;-76
2023/08/24 09:42:51;;;;;;;6.05;1.80;;;;;;;;;;4995058;28;20022;-75
2023/08/24 09:45:16;;;;;;;4.57;2.08;;;;;;;;;;4995887;28;20024;-75
2023/08/24 09:48:00;;;;;;;6.22;2.17;;;;;;;;;;4994767;28;20049;-75
2023/08/24 09:50:25;;;;;;;3.47;1.70;;;;;;;;;;4995342;28;20408;-75
2023/08/24 09:52:52;;;;;;;6.75;2.45;;;;;;;;;;4978210;28;20034;-76
2023/08/24 09:55:22;;;;;;;6.90;2.10;;;;;;;;;;4995232;28;20476;-75
2023/08/24 09:57:52;;;;;;;6.13;2.03;;;;;;;;;;4995538;28;20114;-75
2023/08/24 10:00:22;;;;;;;3.83;1.77;;;;;;;;;;4994622;28;20030;-76
2023/08/24 10:02:52;;;;;;;6.57;2.95;;;;;;;;;;4995845;28;20073;-75
2023/08/24 10:05:23;;;;;;;7.97;2.63;;;;;;;;;;4994417;28;20022;-75
2023/08/24 10:07:55;;;;;;;7.13;1.90;;;;;;;;;;4994296;28;20091;-75
2023/08/24 10:10:22;;;;;;;5.57;1.95;;;;;;;;;;4994691;28;20041;-76
2023/08/24 10:12:50;;;;;;;3.42;1.77;;;;;;;;;;4993835;28;20025;-76
2023/08/24 10:15:17;;;;;;;4.72;1.48;;;;;;;;;;4994312;28;20412;-75
2023/08/24 10:17:44;;;;;;;4.93;1.83;;;;;;;;;;4994610;28;20161;-76
2023/08/24 10:20:10;;;;;;;6.15;2.28;;;;;;;;;;4993930;28;20030;-76
2023/08/24 10:22:37;;;;;;;2.80;1.80;;;;;;;;;;4994006;28;20461;-76
2023/08/24 10:25:03;;;;;;;4.35;1.65;;;;;;;;;;4993821;28;20029;-76
2023/08/24 10:27:29;;;;;;;5.05;1.88;;;;;;;;;;4994355;28;20022;-76
2023/08/24 10:29:55;;;;;;;5.18;2.42;;;;;;;;;;4993234;28;20027;-75
2023/08/24 10:32:22;;;;;;;5.63;3.75;;;;;;;;;;4995540;28;20531;-75
2023/08/24 10:34:47;;;;;;;4.07;1.60;;;;;;;;;;4993974;28;20576;-76
2023/08/24 10:37:12;;;;;;;6.28;2.45;;;;;;;;;;4995633;28;20042;-77
2023/08/24 10:39:43;;;;;;;3.88;1.80;;;;;;;;;;4995066;28;20031;-77
2023/08/24 10:42:13;;;;;;;5.53;2.08;;;;;;;;;;5011421;28;20031;-77
2023/08/24 10:44:39;;;;;;;5.57;2.00;;;;;;;;;;4978680;28;20030;-77
2023/08/24 10:47:15;;;;;;;5.50;1.88;;;;;;;;;;4975847;28;20050;-77
2023/08/24 10:49:41;;;;;;;4.00;1.80;;;;;;;;;;4976958;28;20473;-78
2023/08/24 10:52:23;;;;;;;6.85;2.67;;;;;;;;;;4959997;28;20127;-76
2023/08/24 10:54:50;;;;;;;5.85;2.17;;;;;;;;;;4975969;28;20031;-76
2023/08/24 10:57:29;;;;;;;6.10;1.65;;;;;;;;;;4977239;28;20374;-76
2023/08/24 11:00:09;;;;;;;6.68;1.95;;;;;;;;;;4993913;28;20045;-76
2023/08/24 11:02:47;;;;;;;4.72;1.70;;;;;;;;;;5009698;28;20029;-75
2023/08/24 11:05:35;;;;;;;10.80;2.00;;;;;;;;;;5009261;28;20045;-74
2023/08/24 11:08:02;;;;;;;5.05;2.20;;;;;;;;;;5008347;28;20037;-74
2023/08/24 11:10:48;;;;;;;5.30;2.30;;;;;;;;;;5009757;28;20022;-74
2023/08/24 11:13:19;;;;;;;3.00;1.73;;;;;;;;;;5009498;28;20381;-74
2023/08/24 11:15:58;;;;;;;3.53;2.83;;;;;;;;;;4993184;28;20508;-77
2023/08/24 11:18:30;;;;;;;5.22;2.63;;;;;;;;;;5018568;28;20033;-78
2023/08/24 11:20:59;;;;;;;4.15;1.83;;;;;;;;;;5009305;28;20049;-79
2023/08/24 11:23:26;;;;;;;7.53;2.03;;;;;;;;;;5015366;28;20018;-77
2023/08/24 11:25:56;;;;;;;4.15;2.00;;;;;;;;;;5012250;28;20018;-77
2023/08/24 11:28:25;;;;;;;4.10;1.80;;;;;;;;;;5000932;28;20019;-77
2023/08/24 11:30:51;;;;;;;5.78;1.90;;;;;;;;;;4995393;28;20105;-77
2023/08/24 11:33:17;;;;;;;3.17;1.80;;;;;;;;;;4995607;28;20504;-78
2023/08/24 11:35:43;;;;;;;4.18;1.85;;;;;;;;;;4992854;28;20065;-77
2023/08/24 11:38:09;;;;;;;4.43;1.98;;;;;;;;;;4996321;28;20035;-77
2023/08/24 11:40:34;;;;;;;4.93;1.98;;;;;;;;;;4995875;28;20034;-79
2023/08/24 11:42:59;;;;;;;4.95;1.70;;;;;;;;;;4996178;28;20038;-77
2023/08/24 11:45:30;;;;;;;3.70;1.75;;;;;;;;;;4995464;28;20022;-77
2023/08/24 11:47:56;;;;;;;4.72;1.80;;;;;;;;;;4994760;28;20054;-77
2023/08/24 11:50:23;;;;;;;5.95;1.90;;;;;;;;;;4995519;28;20030;-78
2023/08/24 11:52:48;;;;;;;2.75;1.80;;;;;;;;;;4995925;28;20093;-78
2023/08/24 11:55:14;;;;;;;3.50;1.80;;;;;;;;;;4995566;28;20023;-77
2023/08/24 11:57:39;;;;;;;5.50;1.70;;;;;;;;;;4994488;28;20037;-75
2023/08/24 12:00:05;;;;;;;2.90;2.38;;;;;;;;;;4994210;28;20022;-72
2023/08/24 12:02:32;;;;;;;3.83;2.03;;;;;;;;;;4995545;28;20718;-74
2023/08/24 12:04:58;;;;;;;4.22;1.80;;;;;;;;;;4996444;28;20033;-73
2023/08/24 12:07:24;;;;;;;5.40;1.90;;;;;;;;;;4979748;28;20030;-74
2023/08/24 12:09:52;;;;;;;5.45;1.80;;;;;;;;;;4996106;28;20022;-73
2023/08/24 12:12:23;;;;;;;4.30;2.17;;;;;;;;;;4996503;28;20105;-74
2023/08/24 12:14:49;;;;;;;5.43;2.13;;;;;;;;;;4995932;28;20022;-74
2023/08/24 12:17:15;;;;;;;3.05;1.70;;;;;;;;;;4995876;28;20503;-74
2023/08/24 12:20:06;;;;;;;5.85;1.90;;;;;;;;;;4995733;28;20500;-74
2023/08/24 12:22:32;;;;;;;2.70;1.75;;;;;;;;;;4997523;28;20116;-74
2023/08/24 12:24:57;;;;;;;3.80;1.80;;;;;;;;;;4995967;28;20484;-74
2023/08/24 12:27:24;;;;;;;3.08;1.83;;;;;;;;;;4996467;28;20054;-76
2023/08/24 12:29:49;;;;;;;4.43;2.13;;;;;;;;;;5011838;28;20018;-76
2023/08/24 12:32:16;;;;;;;2.65;1.90;;;;;;;;;;5012635;28;20084;-74
2023/08/24 12:34:42;;;;;;;3.90;1.85;;;;;;;;;;4997343;28;20065;-74
2023/08/24 12:37:08;;;;;;;5.63;1.95;;;;;;;;;;4996547;28;20113;-74
2023/08/24 12:39:37;;;;;;;5.13;2.17;;;;;;;;;;5011782;28;20113;-76
2023/08/24 12:42:03;;;;;;;5.20;1.65;;;;;;;;;;4995810;28;20492;-76
2023/08/24 12:44:28;;;;;;;5.22;1.73;;;;;;;;;;4996199;28;20146;-76
2023/08/24 12:46:53;;;;;;;4.18;1.63;;;;;;;;;;5011729;28;20560;-76
2023/08/24 12:49:18;;;;;;;5.03;1.60;;;;;;;;;;4995692;28;20018;-76
2023/08/24 12:51:44;;;;;;;4.95;1.90;;;;;;;;;;4996065;28;20023;-76
2023/08/24 12:54:09;;;;;;;3.33;1.92;;;;;;;;;;4995482;28;20061;-76
2023/08/24 12:56:35;;;;;;;5.38;2.00;;;;;;;;;;4995841;28;20467;-76
2023/08/24 12:59:00;;;;;;;4.82;2.00;;;;;;;;;;4995404;28;20092;-76
2023/08/24 13:01:25;;;;;;;5.15;2.00;;;;;;;;;;4996811;28;20030;-76
2023/08/24 13:03:51;;;;;;;4.93;1.95;;;;;;;;;;4997232;28;20038;-76
2023/08/24 13:06:16;;;;;;;4.32;2.08;;;;;;;;;;4996066;28;20089;-75
2023/08/24 13:08:41;;;;;;;4.38;2.10;;;;;;;;;;4995666;28;20027;-75
2023/08/24 13:11:07;;;;;;;5.70;2.47;;;;;;;;;;4996607;28;20034;-74
2023/08/24 13:13:32;;;;;;;5.93;2.72;;;;;;;;;;4989814;28;20370;-74
2023/08/24 13:15:57;;;;;;;5.18;2.50;;;;;;;;;;4987327;28;20527;-74
2023/08/24 13:18:23;;;;;;;4.28;1.80;;;;;;;;;;4993898;28;20026;-73
2023/08/24 13:20:48;;;;;;;6.00;1.70;;;;;;;;;;5010650;28;20397;-74
2023/08/24 13:23:13;;;;;;;4.00;2.08;;;;;;;;;;4995058;28;20477;-74
2023/08/24 13:25:40;;;;;;;3.35;1.88;;;;;;;;;;4996492;28;20018;-75
2023/08/24 13:28:05;;;;;;;3.70;2.05;;;;;;;;;;5011180;28;20022;-75
2023/08/24 13:30:31;;;;;;;4.20;1.98;;;;;;;;;;4994957;28;20049;-75
2023/08/24 13:32:56;;;;;;;3.58;2.10;;;;;;;;;;4994153;28;20488;-75
2023/08/24 13:35:22;;;;;;;3.22;1.77;;;;;;;;;;4994798;28;20378;-75
2023/08/24 13:37:48;;;;;;;2.35;1.63;;;;;;;;;;4996375;28;20081;-75
2023/08/24 13:40:13;;;;;;;4.38;2.30;;;;;;;;;;5010854;28;20030;-74
2023/08/24 13:42:38;;;;;;;7.65;2.25;;;;;;;;;;5010607;28;20440;-75
2023/08/24 13:45:04;;;;;;;7.10;2.38;;;;;;;;;;4994135;28;20022;-74
2023/08/24 13:47:29;;;;;;;5.20;2.03;;;;;;;;;;4994036;28;20068;-75
2023/08/24 13:49:54;;;;;;;5.35;2.33;;;;;;;;;;5010809;28;21306;-75
2023/08/24 13:52:20;;;;;;;3.97;2.20;;;;;;;;;;4995391;28;20030;-75
2023/08/24 13:54:45;;;;;;;5.63;2.10;;;;;;;;;;4993839;28;20022;-75
2023/08/24 13:57:11;;;;;;;4.80;2.00;;;;;;;;;;4994214;28;20026;-74
2023/08/24 13:59:36;;;;;;;3.15;1.98;;;;;;;;;;4993948;28;20026;-75
2023/08/24 14:02:01;;;;;;;3.65;1.77;;;;;;;;;;4995622;28;20157;-74
2023/08/24 14:04:27;;;;;;;3.55;2.10;;;;;;;;;;4995307;28;20083;-74
2023/08/24 14:06:52;;;;;;;3.33;2.00;;;;;;;;;;4994052;28;20030;-73
2023/08/24 14:09:17;;;;;;;3.70;2.05;;;;;;;;;;4993801;28;20128;-73
2023/08/24 14:11:43;;;;;;;5.18;2.10;;;;;;;;;;4993919;28;20104;-74
2023/08/24 14:14:08;;;;;;;3.22;2.10;;;;;;;;;;4993848;28;20460;-73
2023/08/24 14:16:34;;;;;;;5.05;2.35;;;;;;;;;;4993617;28;20109;-74
2023/08/24 14:18:59;;;;;;;5.00;2.35;;;;;;;;;;4993803;28;20041;-74
2023/08/24 14:21:24;;;;;;;3.72;2.33;;;;;;;;;;4993820;28;20084;-76
2023/08/24 14:23:50;;;;;;;4.63;2.20;;;;;;;;;;4993583;28;20024;-77
2023/08/24 14:26:15;;;;;;;4.88;2.75;;;;;;;;;;4994642;28;20077;-76
2023/08/24 14:28:54;;;;;;;4.45;2.42;;;;;;;;;;4995020;28;20535;-76
2023/08/24 14:31:24;;;;;;;4.57;2.13;;;;;;;;;;4993781;28;20057;-76
2023/08/24 14:33:51;;;;;;;4.93;2.50;;;;;;;;;;4993212;28;20046;-76
2023/08/24 14:36:17;;;;;;;5.05;2.35;;;;;;;;;;4993642;28;20026;-76
2023/08/24 14:38:42;;;;;;;6.32;2.90;;;;;;;;;;4993784;28;20022;-76
2023/08/24 14:41:09;;;;;;;4.53;3.08;;;;;;;;;;4993852;28;20037;-76